Casper, WY

2:55 AM MDT on May 30, 2015 (GMT -0600)
CY Ave | | Change Station
CLOSE
Current Station
Personal Weather Station
Location: Casper, WY
Elevation: 5227 ft
Nearby Weather Stations

Elev 5227 ft 42.83 °N, 106.35 °W | Updated 10 minutes ago

Clear
Clear
44.2 °F
Feels Like 44 °F
N
0.0
Wind Variable Wind from WNW
Gusts 0.0 mph

Today
High -- | Low -- °F
--% Chance of Precip.
Yesterday
High -- | Low -- °F
Precip. -- in
5:30 AM 8:35 PM
Waxing Gibbous, 89% visible
Pressure 30.22 in
Visibility 7.0 miles
Clouds Clear
Windchill 44 °F
Dew Point 35 °F
Humidity 70%
Rainfall 0.00 in
Snow Depth Not available.
UV 0 out of 12
Pollen 1.00 out of 12
Air Quality Not available.
Flu Activity Sporadic
METAR KCPR 300753Z AUTO 02003KT 7SM CLR 03/02 A3025 RMK AO2 SLP234 T00280017

More Conditions Fewer Conditions

Pressure 30.22 in
Visibility 7.0 miles
Clouds Clear
Windchill 44 °F
Dew Point 35 °F
Humidity 70%
Rainfall 0.00 in
Snow Depth Not available.
UV 0 out of 12
Pollen 1.00 out of 12
Air Quality Not available.
Flu Activity Sporadic
METAR KCPR 300753Z AUTO 02003KT 7SM CLR 03/02 A3025 RMK AO2 SLP234 T00280017

More Conditions Fewer Conditions

10-Day Weather Forecast

Almanac

Astronomy

May. 30, 2015 Rise Set
Actual Time
Civil Twilight
Nautical Twilight
Astronomical Twilight
Moon
Length of Visible Light
Length of Day
Tomorrow will be .
, % of the Moon is Illuminated

Today's Extremes

State Highs State Lows

Community

WunderPhotos

Upload Photos

1,825,472 photos uploaded!

WunderBlogs® & News

Nearby

Air Quality

  Air Quality AQ Index Pollutant
Not available.

Snow Depth

Station Depth Elevation

Earthquake Activity

City Distance Mag. Time & Date
Minimum magnitude displayed is 2.5.

Coastal Water Temperatures

Place Temperature

Stations

Nearby Weather Stations

Station Location Temp. Windchill Dew Point Humidity Wind Precip. Elev Updated Type